AirNav   Air Wisconsin pilot careers
 
 915 users online  

W49 Rosario Seaplane Base
Rosario, Washington, USA

GOING TO ROSARIO?


FAA INFORMATION EFFECTIVE 06 DECEMBER 2018

Location

FAA Identifier: W49
Lat/Long: 48-38-44.3730N / 122-52-04.6580W
48-38.739550N / 122-52.077633W
48.6456592 / -122.8679606
(estimated)
Elevation: 0 ft. / 0 m (estimated)
Variation: 21E (1985)
Time zone: UTC -8 (UTC -7 during Daylight Saving Time)
Zip code: 98279

Seaplane Base Operations

Seaplane Base use: Open to the public
Activation date: 01/1948
Control tower: no
ARTCC: SEATTLE CENTER
FSS: SEATTLE FLIGHT SERVICE STATION
NOTAMs facility: SEA (NOTAM-D service available)
Attendance: DAYLIGHT HOURS
Wind indicator: no
Segmented circle: no

Seaplane Base Communications

CTAF: 128.25
WX AWOS-3 at ORS (4 nm NW): 135.425 (360-376-6045)
WX ASOS at FHR (10 nm SW): 135.675 (360-378-8491)
WX ASOS at BLI (16 nm NE): PHONE 360-671-8688

Nearby radio navigation aids

VOR radial/distance  VOR name  Freq  Var
HUHr192/21.3WHATCOM VORTAC113.0020E
CVVr328/24.7PENN COVE VOR/DME117.2019E
YYJr084/24.9VICTORIA VOR/DME113.7017E
YVRr140/28.2VANCOUVER VOR/DME115.9017E

 
NDB name  Hdg/Dist  Freq  Var  ID
FRIDAY HARBOR021/10.128417EFHR ..-. .... .-.
SKAGIT/BAY VIEW285/20.824016EBVS -... ...- ...

Seaplane Base Services

Airframe service: NONE
Powerplant service: NONE
Bottled oxygen: NONE
Bulk oxygen: NONE

Runway Information

Runway 16W/34W

Dimensions: 10000 x 1000 ft. / 3048 x 305 m
Surface: water
RUNWAY 16W  RUNWAY 34W
Traffic pattern: leftleft
Obstructions: 700 ft. hill, 1000 ft. from runway, 1:1 slope to clearnone

Runway 7W/25W

Dimensions: 2500 x 1000 ft. / 762 x 305 m
Surface: water
RUNWAY 7W  RUNWAY 25W
Traffic pattern: leftleft
Obstructions: 300 ft. hill, 3000 ft. from runway, 10:1 slope to clear1100 ft. hill, 4000 ft. from runway, 3:1 slope to clear

Seaplane Base Ownership and Management from official FAA records

Ownership: Privately-owned
Owner: ROSARIO RESORT
ROSARIO RESORT, 1400 ROSARIO ROAD
EASTSOUND, WA 98245
Phone 360-376-2222
Manager: CHRISTOPHER PEACOCK
ROSARIO RESORT, 1400 ROSARIO ROAD
EASTSOUND, WA 98245
Phone 360-376-2222
SELECT #4 FOR MARINA OFFICES

Seaplane Base Operational Statistics

Aircraft operations: avg 48/week *
84% air taxi
16% transient general aviation
* for 12-month period ending 31 December 2017

Additional Remarks

TRANSIENT DOCK AVBL.
CTC HARBORMASTER FOR OVNGT SEAPLANE MOORAGE. PHONE NR 360-376-2222. SELECT OPTION 4 FOR MARINA OFC.

Instrument Procedures

There are no published instrument procedures at W49.

Some nearby airports with instrument procedures:

KORS - Orcas Island Airport (4 nm NW)
KFHR - Friday Harbor Airport (10 nm SW)
KBLI - Bellingham International Airport (16 nm NE)
KNUW - Whidbey Island Naval Air Station (Ault Field) (20 nm SE)
KBVS - Skagit Regional Airport (21 nm SE)
 
Loc | Ops | Rwys | IFR | FBO | Links
Com | Nav | Svcs | Stats | Notes


 
Area around W49 (Rosario Seaplane Base)
 
Road maps at: MapQuest Bing Google
 
Aerial photo
WARNING: Photo may not be current or correct
Aerial photo of W49 (Rosario Seaplane Base)
Do you have a better or more recent aerial photo of Rosario Seaplane Base that you would like to share? If so, please send us your photo.

 
Sectional chart

 
Airport distance calculator
Flying to Rosario Seaplane Base? Find the distance to fly.

From to W49

Sunrise and sunset
Times for 14-Dec-2018
 Local
(UTC-8)
 Zulu
(UTC)
Morning civil twilight07:2115:21
Sunrise07:5815:58
Sunset16:1500:15
Evening civil twilight16:5200:52

Current date and time
Zulu (UTC)  14-Dec-2018 13:49:10
Local (UTC-8)  14-Dec-2018 05:49:10
 
METAR
KORS 
3nm N 
141335Z AUTO 15014G23KT 120V200 10SM CLR 14/M03 A2959 RMK AO2
CWEZ 
10nm NW 
141300Z AUTO 15027G32KT 12/02 RMK AO1 PK WND 16036/1221 SLP022 T01200018 58023
KFHR 
10nm SW 
141253Z AUTO 14014G23KT 10SM CLR 12/01 A2962 RMK AO2 PK WND 14026/1234 SLP032 T01170006
74S 
12nm SE 
SuperAWOS
141335Z AUTO 11019G30KT 030V190 10SM 14/M02 A2963
CWZO 
16nm W 
141300Z AUTO 15030G36KT RMK AO1 PK WND 15036/1254
KBLI 
16nm NE 
141253Z AUTO 14010KT 10SM CLR 15/M06 A2965 RMK AO2 SLP048 T01501056
KNUW 
20nm SE 
141256Z 15027G33KT 10SM BKN180 BKN200 OVC220 14/M01 A2968 RMK AO2 PK WND 14034/1237 SLP049 T01391011 $
TAF
KBLI 
16nm NE 
141123Z 1412/1512 16012G21KT P6SM -RA BKN080 OVC100 FM141300 14015G22KT P6SM SCT040 SCT100 FM142100 15025G32KT P6SM -RA OVC050 FM150800 18010KT P6SM OVC050
KNUW 
20nm SE 
1407/1507 14023G37KT 9999 VCSH SCT040 BKN060 BKN120 BKN250 640409 641305 550209 QNH2976INS FM140900 14022G35KT 9999 FEW050 SCT120 SCT250 640409 641305 550209 QNH2945INS TEMPO 1409/1415 14018G28KT FEW070 SCT150 BKN250 BECMG 1419/1421 15030G45KT 9999 VCSH SCT015 BKN060 BKN100 OVC180 WSCONDS 640609 550009 550909 QNH2943INS TEMPO 1421/1501 16034G50KT 3200 SHRA BKN015 OVC050 BECMG 1501/1503 25025G44KT 9999 VCSH BKN020 BKN250 WSCONDS 640609 550009 550909 QNH2943INS T04/1413Z T13/1423Z FS30058
NOTAMs
Click for the latest NOTAMs
NOTAMs are issued by the DoD/FAA and will open in a separate window not controlled by AirNav.

 

 
 

Would you like to see your business listed on this page?

 If your business provides an interesting product or service to pilots, flight crews, aircraft, or users of the Rosario Seaplane Base, you should consider listing it here.  To start the listing process, click on the button below
 
Add a business
 

Other Pages about Rosario Seaplane Base

Update a link
 
Copyright © AirNav, LLC. All rights reserved. Privacy Policy  Contact